Latest Weather Observations for Port Kembla Harbour

IDN60801

Issued at 8:35 pm EDT Thursday 23 October 2014 (issued every 30 minutes, with the page automatically refreshed every 10 minutes)

About weather observations | Map of weather stations | Latest weather observations for NSW | Other Formats
Station Details ID: 068253 Name: PORT KEMBLA NTC AWS Lat: -34.47 Lon: 150.91 Height: 0.0 m
Data from the previous 72 hours. | See also: Recent months for locations in New South Wales
Date/Time
EDT
Temp
°C
App
Temp
°C
Dew
Point
Rel
Hum
%
Delta-T
°C
Wind Press
QNH
hPa
Press
MSL
hPa
Rain
since 9 am
mm
Dir
 
Spd
km/h
Gust
km/h
Spd
kts
Gust
kts
23/08:30pm 19.8 - - - - SE 7 11 4 6 1019.1 1019.1 -
23/08:00pm 19.9 - - - - ESE 4 7 2 4 1018.8 1018.8 -
23/07:30pm 19.9 - - - - ESE 2 4 1 2 1018.5 1018.5 -
23/07:00pm 19.9 - - - - NE 2 2 1 1 1018.3 1018.3 -
23/06:30pm 20.0 - - - - NE 4 7 2 4 1017.9 1017.9 -
23/06:00pm 20.4 - - - - ESE 4 7 2 4 1017.5 1017.5 -
23/05:30pm 20.4 - - - - E 4 6 2 3 1017.1 1017.1 -
23/05:00pm 20.7 - - - - NNE 4 6 2 3 1016.8 1016.8 -
23/04:30pm 20.5 - - - - NNE 6 9 3 5 1016.6 1016.6 -
23/04:00pm 20.8 - - - - E 6 9 3 5 1016.3 1016.3 -
23/03:30pm 20.9 - - - - E 6 11 3 6 1016.2 1016.2 -
23/03:00pm 21.5 - - - - SE 7 13 4 7 1016.2 1016.2 -
23/02:30pm 21.4 - - - - ENE 2 4 1 2 1016.3 1016.3 -
23/02:00pm 21.0 - - - - ESE 6 9 3 5 1016.5 1016.5 -
23/01:30pm 20.5 - - - - SE 9 13 5 7 1016.7 1016.7 -
23/01:00pm 20.0 - - - - E 6 7 3 4 1016.7 1016.7 -
23/12:30pm 20.2 - - - - ESE 9 11 5 6 1016.8 1016.8 -
23/12:00pm 20.0 - - - - SE 13 17 7 9 1017.1 1017.1 -
23/11:30am 19.9 - - - - SE 9 13 5 7 1017.3 1017.3 -
23/11:00am 19.6 - - - - SE 11 15 6 8 1017.3 1017.3 -
23/10:30am 19.8 - - - - SE 9 11 5 6 1017.2 1017.2 -
23/10:00am 20.1 - - - - E 4 7 2 4 1017.2 1017.2 -
23/09:30am 20.2 - - - - ESE 4 6 2 3 1017.2 1017.2 -
23/09:00am 18.6 - - - - SE 6 9 3 5 1017.0 1017.0 -
23/08:30am 18.4 - - - - ESE 4 6 2 3 1016.9 1016.9 -
23/08:00am 18.6 - - - - ESE 4 6 2 3 1016.8 1016.8 -
23/07:30am 17.9 - - - - SSW 4 6 2 3 1016.7 1016.7 -
23/07:00am 16.5 - - - - SW 2 4 1 2 1016.7 1016.7 -
23/06:30am 16.9 - - - - SSW 2 4 1 2 1016.6 1016.6 -
23/06:00am 17.4 - - - - NW 4 6 2 3 1016.3 1016.3 -
23/05:30am 17.8 - - - - NNE 11 15 6 8 1015.9 1015.9 -
23/05:00am 17.8 - - - - NNE 11 15 6 8 1015.8 1015.8 -
23/04:30am 17.7 - - - - NNE 11 13 6 7 1016.1 1016.1 -
23/04:00am 17.8 - - - - NNE 11 17 6 9 1016.1 1016.1 -
23/03:30am 17.7 - - - - NNE 9 13 5 7 1016.5 1016.5 -
23/03:00am 17.8 - - - - NNE 13 17 7 9 1016.8 1016.8 -
23/02:30am 17.7 - - - - N 11 15 6 8 1017.1 1017.1 -
23/02:00am 17.6 - - - - N 9 17 5 9 1017.5 1017.5 -
23/01:30am 17.6 - - - - NNE 11 15 6 8 1018.0 1018.0 -
23/01:00am 17.6 - - - - N 11 13 6 7 1018.4 1018.4 -
23/12:30am 17.6 - - - - N 9 13 5 7 1018.9 1018.9 -
23/12:00am 17.3 - - - - N 9 11 5 6 1019.3 1019.3 -
 
Date/Time
EDT
Temp
°C
App
Temp
°C
Dew
Point
Rel
Hum
%
Delta-T
°C
Wind Press
QNH
hPa
Press
MSL
hPa
Rain
since 9 am
mm
Dir
 
Spd
km/h
Gust
km/h
Spd
kts
Gust
kts
22/11:30pm 17.4 - - - - N 7 11 4 6 1019.5 1019.5 -
22/11:00pm 17.8 - - - - N 7 11 4 6 1019.7 1019.7 -
22/10:30pm 17.9 - - - - N 7 9 4 5 1020.0 1020.0 -
22/10:00pm 18.1 - - - - N 11 15 6 8 1020.0 1020.0 -
22/09:30pm 17.9 - - - - N 9 15 5 8 1019.9 1019.9 -
22/09:00pm 18.2 - - - - NNE 15 20 8 11 1019.8 1019.8 -
22/08:30pm 18.3 - - - - NNE 20 26 11 14 1019.5 1019.5 -
22/08:00pm 18.4 - - - - NNE 28 37 15 20 1019.2 1019.2 -
22/07:30pm 18.4 - - - - NNE 32 39 17 21 1019.0 1019.0 -
22/07:00pm 18.4 - - - - NE 33 41 18 22 1018.9 1018.9 -
22/06:30pm 18.5 - - - - NNE 32 41 17 22 1019.0 1019.0 -
22/06:00pm 18.4 - - - - NE 32 39 17 21 1019.1 1019.1 -
22/05:30pm 18.5 - - - - NE 33 44 18 24 1019.3 1019.3 -
22/05:00pm 18.5 - - - - NE 32 43 17 23 1019.5 1019.5 -
22/04:30pm 18.6 - - - - NE 33 43 18 23 1019.7 1019.7 -
22/04:00pm 18.5 - - - - NE 30 41 16 22 1020.0 1020.0 -
22/03:30pm 18.4 - - - - NE 32 41 17 22 1020.4 1020.4 -
22/03:00pm 18.3 - - - - NE 32 43 17 23 1020.8 1020.8 -
22/02:30pm 18.2 - - - - NE 30 41 16 22 1021.3 1021.3 -
22/02:00pm 18.2 - - - - NE 30 41 16 22 1021.9 1021.9 -
22/01:30pm 18.1 - - - - NE 32 43 17 23 1022.3 1022.3 -
22/01:00pm 18.1 - - - - NE 26 41 14 22 1023.0 1023.0 -
22/12:30pm 18.6 - - - - NE 26 33 14 18 1023.5 1023.5 -
22/12:00pm 18.5 - - - - NE 24 33 13 18 1024.2 1024.2 -
22/11:30am 18.2 - - - - NNE 28 37 15 20 1024.8 1024.8 -
22/11:00am 18.0 - - - - NNE 22 30 12 16 1025.3 1025.3 -
22/10:30am 17.9 - - - - NNE 20 28 11 15 1025.6 1025.6 -
22/10:00am 17.8 - - - - N 22 33 12 18 1026.0 1026.0 -
22/09:30am 17.2 - - - - NNE 20 28 11 15 1026.1 1026.1 -
22/09:00am 17.2 - - - - N 22 28 12 15 1026.4 1026.4 -
22/08:30am 16.7 - - - - N 19 26 10 14 1026.5 1026.5 -
22/08:00am 16.2 - - - - NNW 19 26 10 14 1026.6 1026.6 -
22/07:30am 16.0 - - - - NNW 17 22 9 12 1026.6 1026.6 -
22/07:00am 15.5 - - - - NNW 11 15 6 8 1026.7 1026.7 -
22/06:30am 15.7 - - - - NNW 13 19 7 10 1026.6 1026.6 -
22/06:00am 15.4 - - - - NNW 11 15 6 8 1026.6 1026.6 -
22/05:30am 15.5 - - - - NNW 9 11 5 6 1026.5 1026.5 -
22/05:00am 15.8 - - - - N 13 20 7 11 1026.6 1026.6 -
22/04:30am 15.8 - - - - NNE 17 22 9 12 1026.8 1026.8 -
22/04:00am 15.4 - - - - NNW 9 15 5 8 1027.1 1027.1 -
22/03:30am 15.4 - - - - NNW 9 15 5 8 1027.4 1027.4 -
22/03:00am 15.4 - - - - NNW 11 15 6 8 1027.7 1027.7 -
22/02:30am 16.0 - - - - NNE 22 30 12 16 1028.1 1028.1 -
22/02:00am 15.7 - - - - NNW 13 19 7 10 1028.4 1028.4 -
22/01:30am 16.4 - - - - NE 22 30 12 16 1028.8 1028.8 -
22/01:00am 16.4 - - - - N 9 13 5 7 1029.4 1029.4 -
22/12:30am 16.3 - - - - N 9 15 5 8 1029.9 1029.9 -
22/12:00am 16.3 - - - - N 13 20 7 11 1030.2 1030.2 -
 
Date/Time
EDT
Temp
°C
App
Temp
°C
Dew
Point
Rel
Hum
%
Delta-T
°C
Wind Press
QNH
hPa
Press
MSL
hPa
Rain
since 9 am
mm
Dir
 
Spd
km/h
Gust
km/h
Spd
kts
Gust
kts
21/11:30pm 16.2 - - - - N 11 17 6 9 1030.4 1030.4 -
21/11:00pm 16.5 - - - - NNE 22 32 12 17 1030.6 1030.6 -
21/10:30pm 16.9 - - - - NNE 20 28 11 15 1030.7 1030.7 -
21/10:00pm 17.0 - - - - NE 17 24 9 13 1030.7 1030.7 -
21/09:30pm 17.0 - - - - NE 17 24 9 13 1030.7 1030.7 -
21/09:00pm 17.1 - - - - NE 15 22 8 12 1030.6 1030.6 -
21/08:30pm 17.2 - - - - NE 13 20 7 11 1030.4 1030.4 -
21/08:00pm 17.1 - - - - NE 13 19 7 10 1030.2 1030.2 -
21/07:30pm 17.0 - - - - NE 13 19 7 10 1030.0 1030.0 -
21/07:00pm 17.0 - - - - NE 11 17 6 9 1029.8 1029.8 -
21/06:30pm 16.8 - - - - ENE 11 19 6 10 1029.8 1029.8 -
21/06:00pm 17.0 - - - - NE 11 17 6 9 1029.7 1029.7 -
21/05:30pm 17.0 - - - - NE 9 13 5 7 1029.8 1029.8 -
21/05:00pm 16.9 - - - - NE 9 15 5 8 1029.9 1029.9 -
21/04:30pm 16.9 - - - - ENE 11 17 6 9 1029.8 1029.8 -
21/04:00pm 16.8 - - - - ENE 9 17 5 9 1030.0 1030.0 -
21/03:30pm 16.7 - - - - ENE 11 19 6 10 1030.3 1030.3 -
21/03:00pm 16.8 - - - - NE 11 17 6 9 1030.6 1030.6 -
21/02:30pm 16.6 - - - - ENE 13 19 7 10 1030.8 1030.8 -
21/02:00pm 16.7 - - - - NE 11 17 6 9 1031.3 1031.3 -
21/01:30pm 16.6 - - - - ENE 9 13 5 7 1031.7 1031.7 -
21/01:00pm 16.5 - - - - ENE 9 15 5 8 1032.1 1032.1 -
21/12:30pm 16.3 - - - - ENE 9 17 5 9 1032.3 1032.3 -
21/12:00pm 16.4 - - - - ENE 6 17 3 9 1032.6 1032.6 -
21/11:30am 15.9 - - - - NE 6 11 3 6 1032.8 1032.8 -
21/11:00am 16.1 - - - - NW 4 11 2 6 1032.9 1032.9 -
21/10:30am 15.9 - - - - WNW 4 9 2 5 1032.9 1032.9 -
21/10:00am 15.5 - - - - NW 6 7 3 4 1032.9 1032.9 -
21/09:30am 15.4 - - - - WSW 9 13 5 7 1032.7 1032.7 -
21/09:00am 15.2 - - - - W 11 15 6 8 1032.6 1032.6 -
21/08:30am 15.1 - - - - SSW 4 9 2 5 1032.3 1032.3 -
21/08:00am 14.5 - - - - W 9 11 5 6 1032.1 1032.1 -

Other Formats:

Comma delimited format used in spreadsheet applications
http://www.bom.gov.au/fwo/IDN60801/IDN60801.95745.axf

JavaScript Object Notation format (JSON) in row-major order
http://www.bom.gov.au/fwo/IDN60801/IDN60801.95745.json